createdAt,value
2022-10-13T00:00:50.625Z,99467.47
2022-10-13T00:02:22.075Z,99474.31
2022-10-13T00:03:53.543Z,99464.78
2022-10-13T00:05:24.936Z,99473.56
2022-10-13T00:06:56.352Z,99469.41
2022-10-13T00:08:30.624Z,99468.22
2022-10-13T00:10:02.037Z,99475.50
2022-10-13T00:11:33.501Z,99469.41
2022-10-13T00:13:04.929Z,99467.47
2022-10-13T00:14:36.331Z,99466.72
2022-10-13T00:16:08.175Z,99464.03
2022-10-13T00:17:40.031Z,99466.72
2022-10-13T00:19:14.959Z,99465.97
2022-10-13T00:20:49.827Z,99464.78
2022-10-13T00:22:21.472Z,99465.22
2022-10-13T00:23:53.112Z,99465.97
2022-10-13T00:25:24.513Z,99460.63
2022-10-13T00:26:56.071Z,99463.28
2022-10-13T00:28:27.558Z,99457.19
2022-10-13T00:29:59.013Z,99460.63
2022-10-13T00:31:30.854Z,99461.81
2022-10-13T00:33:02.257Z,99464.50
2022-10-13T00:34:33.638Z,99459.16
2022-10-13T00:36:05.901Z,99455.72
2022-10-13T00:37:37.329Z,99458.41
2022-10-13T00:39:08.724Z,99452.31
2022-10-13T00:40:50.136Z,99450.38
2022-10-13T00:42:21.847Z,99448.44
2022-10-13T00:43:56.321Z,99448.44
2022-10-13T00:45:28.312Z,99450.81
2022-10-13T00:46:59.695Z,99451.13
2022-10-13T00:48:31.125Z,99443.53
2022-10-13T00:50:02.574Z,99449.63
2022-10-13T00:51:34.780Z,99448.13
2022-10-13T00:53:06.184Z,99450.81
2022-10-13T00:54:37.581Z,99445.91
2022-10-13T00:56:09.445Z,99444.72
2022-10-13T00:57:41.357Z,99448.13
2022-10-13T00:59:14.789Z,99450.81
2022-10-13T01:00:47.237Z,99456.16
2022-10-13T01:02:21.285Z,99448.13
2022-10-13T01:03:54.321Z,99447.38
2022-10-13T01:05:25.739Z,99445.47
2022-10-13T01:06:59.697Z,99447.38
2022-10-13T01:08:32.258Z,99450.81
2022-10-13T01:10:03.719Z,99445.47
2022-10-13T01:11:40.685Z,99450.06
2022-10-13T01:13:14.062Z,99435.94
2022-10-13T01:14:53.293Z,99439.34
2022-10-13T01:16:33.658Z,99443.97
2022-10-13T01:18:14.116Z,99437.88
2022-10-13T01:19:55.066Z,99442.03
2022-10-13T01:21:46.737Z,99440.56
2022-10-13T01:23:36.788Z,99437.13
2022-10-13T01:25:14.009Z,99434.47
2022-10-13T01:27:04.129Z,99439.81
2022-10-13T01:28:41.789Z,99437.88
2022-10-13T01:30:14.786Z,99436.38
2022-10-13T01:31:46.194Z,99438.31
2022-10-13T01:33:29.784Z,99426.44
2022-10-13T01:35:01.197Z,99431.78
2022-10-13T01:36:38.608Z,99431.78
2022-10-13T01:38:12.723Z,99426.44
2022-10-13T01:39:45.129Z,99429.13
2022-10-13T01:41:28.527Z,99424.94
2022-10-13T01:43:04.312Z,99423.00
2022-10-13T01:44:36.309Z,99424.50
2022-10-13T01:46:09.714Z,99416.91
2022-10-13T01:47:41.102Z,99420.34
2022-10-13T01:49:13.123Z,99428.38
2022-10-13T01:50:44.543Z,99426.88
2022-10-13T01:52:17.344Z,99425.69
2022-10-13T01:53:48.942Z,99419.59
2022-10-13T01:55:20.358Z,99414.25
2022-10-13T01:56:52.630Z,99415.41
2022-10-13T01:58:24.554Z,99412.31
2022-10-13T01:59:56.608Z,99414.25
2022-10-13T02:01:30.466Z,99409.63
2022-10-13T02:03:06.336Z,99403.53
2022-10-13T02:04:37.745Z,99408.88
2022-10-13T02:06:21.198Z,99414.25
2022-10-13T02:07:54.747Z,99408.88
2022-10-13T02:09:48.352Z,99416.91
2022-10-13T02:11:20.292Z,99414.25
2022-10-13T02:12:52.727Z,99414.66
2022-10-13T02:14:24.723Z,99413.94
2022-10-13T02:15:56.899Z,99413.50
2022-10-13T02:17:28.322Z,99411.56
2022-10-13T02:18:59.718Z,99412.00
2022-10-13T02:20:31.139Z,99408.13
2022-10-13T02:22:02.551Z,99405.47
2022-10-13T02:23:33.949Z,99407.38
2022-10-13T02:25:05.616Z,99413.94
2022-10-13T02:26:37.018Z,99411.28
2022-10-13T02:28:10.612Z,99411.28
2022-10-13T02:29:50.661Z,99410.53
2022-10-13T02:31:24.042Z,99401.28
2022-10-13T02:32:55.467Z,99408.59
2022-10-13T02:34:26.848Z,99407.84
2022-10-13T02:35:58.237Z,99405.91
2022-10-13T02:37:29.805Z,99408.59
2022-10-13T02:39:01.218Z,99410.53
2022-10-13T02:40:32.611Z,99411.28
2022-10-13T02:42:04.245Z,99413.19
2022-10-13T02:43:35.649Z,99404.44
2022-10-13T02:45:07.407Z,99410.53
2022-10-13T02:46:38.792Z,99409.78
2022-10-13T02:48:10.198Z,99405.19
2022-10-13T02:49:41.582Z,99405.19
2022-10-13T02:51:12.981Z,99405.19
2022-10-13T02:52:44.384Z,99404.44
2022-10-13T02:54:15.805Z,99404.44
2022-10-13T02:55:47.205Z,99402.50
2022-10-13T02:57:18.584Z,99405.19
2022-10-13T02:58:50.394Z,99404.44
2022-10-13T03:00:21.764Z,99406.34
2022-10-13T03:01:53.813Z,99409.03
2022-10-13T03:03:26.189Z,99411.72
2022-10-13T03:04:58.044Z,99403.69
2022-10-13T03:06:29.447Z,99409.03
2022-10-13T03:08:00.855Z,99409.03
2022-10-13T03:09:32.287Z,99399.50
2022-10-13T03:11:03.696Z,99402.94
2022-10-13T03:12:35.070Z,99402.94
2022-10-13T03:14:06.479Z,99397.59
2022-10-13T03:15:37.860Z,99397.59
2022-10-13T03:17:13.412Z,99400.25
2022-10-13T03:18:45.110Z,99396.84
2022-10-13T03:20:16.680Z,99391.47
2022-10-13T03:21:48.083Z,99397.59
2022-10-13T03:23:19.481Z,99398.31
2022-10-13T03:24:50.898Z,99399.06
2022-10-13T03:26:22.290Z,99399.50
2022-10-13T03:27:55.088Z,99399.50
2022-10-13T03:29:26.486Z,99402.94
2022-10-13T03:31:01.396Z,99407.53
2022-10-13T03:32:32.816Z,99401.44
2022-10-13T03:34:04.208Z,99398.75
2022-10-13T03:35:36.014Z,99401.00
2022-10-13T03:37:07.416Z,99398.75
2022-10-13T03:38:45.836Z,99402.19
2022-10-13T03:40:17.297Z,99399.50
2022-10-13T03:41:48.701Z,99398.03
2022-10-13T03:43:20.084Z,99400.72
2022-10-13T03:44:56.150Z,99406.78
2022-10-13T03:46:28.442Z,99401.44
2022-10-13T03:48:01.664Z,99404.13
2022-10-13T03:49:33.051Z,99401.44
2022-10-13T03:51:05.228Z,99395.38
2022-10-13T03:52:36.631Z,99400.72
2022-10-13T03:54:09.503Z,99398.75
2022-10-13T03:55:40.934Z,99400.72
2022-10-13T03:57:12.337Z,99398.03
2022-10-13T03:58:43.766Z,99394.63
2022-10-13T04:00:15.437Z,99401.44
2022-10-13T04:01:46.887Z,99394.63
2022-10-13T04:03:18.326Z,99397.28
2022-10-13T04:04:49.875Z,99399.97
2022-10-13T04:06:21.483Z,99398.75
2022-10-13T04:07:52.883Z,99397.28
2022-10-13T04:09:28.829Z,99397.28
2022-10-13T04:11:00.749Z,99404.13
2022-10-13T04:12:32.149Z,99403.38
2022-10-13T04:14:03.564Z,99399.19
2022-10-13T04:15:38.214Z,99393.09
2022-10-13T04:17:09.609Z,99391.16
2022-10-13T04:18:44.459Z,99400.72
2022-10-13T04:20:16.339Z,99383.91
2022-10-13T04:21:48.208Z,99394.63
2022-10-13T04:23:19.857Z,99392.34
2022-10-13T04:24:52.243Z,99395.75
2022-10-13T04:26:24.086Z,99393.84
2022-10-13T04:27:55.467Z,99392.34
2022-10-13T04:29:26.872Z,99398.44
2022-10-13T04:30:58.508Z,99392.34
2022-10-13T04:32:32.950Z,99393.09
2022-10-13T04:34:07.151Z,99403.78
2022-10-13T04:35:41.318Z,99397.69
2022-10-13T04:37:12.723Z,99395.00
2022-10-13T04:38:44.163Z,99396.94
2022-10-13T04:40:15.613Z,99405.72
2022-10-13T04:41:47.030Z,99404.97
2022-10-13T04:43:18.425Z,99402.63
2022-10-13T04:44:50.102Z,99402.28
2022-10-13T04:46:26.051Z,99401.13
2022-10-13T04:48:00.254Z,99404.97
2022-10-13T04:49:31.650Z,99403.03
2022-10-13T04:51:04.201Z,99405.72
2022-10-13T04:52:35.769Z,99410.31
2022-10-13T04:54:07.239Z,99413.75
2022-10-13T04:55:38.644Z,99405.72
2022-10-13T04:57:10.043Z,99406.47
2022-10-13T04:58:41.806Z,99404.97
2022-10-13T05:00:13.460Z,99399.63
2022-10-13T05:01:44.909Z,99406.47
2022-10-13T05:03:17.848Z,99396.50
2022-10-13T05:04:49.253Z,99400.38
2022-10-13T05:06:21.815Z,99399.63
2022-10-13T05:07:53.829Z,99399.63
2022-10-13T05:09:25.212Z,99398.13
2022-10-13T05:10:57.135Z,99402.28
2022-10-13T05:12:28.526Z,99402.28
2022-10-13T05:14:00.811Z,99402.28
2022-10-13T05:15:32.206Z,99398.88
2022-10-13T05:17:03.597Z,99398.13
2022-10-13T05:18:35.110Z,99404.97
2022-10-13T05:20:06.779Z,99406.16
2022-10-13T05:21:38.608Z,99403.47
2022-10-13T05:23:10.023Z,99400.09
2022-10-13T05:24:41.411Z,99400.78
2022-10-13T05:26:13.685Z,99405.44
2022-10-13T05:27:45.079Z,99406.16
2022-10-13T05:29:16.488Z,99400.78
2022-10-13T05:30:47.894Z,99402.75
2022-10-13T05:32:19.493Z,99406.91
2022-10-13T05:33:51.168Z,99403.94
2022-10-13T05:35:27.065Z,99406.63
2022-10-13T05:36:58.753Z,99408.81
2022-10-13T05:38:30.141Z,99410.03
2022-10-13T05:40:01.548Z,99411.50
2022-10-13T05:41:32.932Z,99410.31
2022-10-13T05:43:04.316Z,99412.25
2022-10-13T05:44:35.719Z,99414.94
2022-10-13T05:46:07.303Z,99417.59
2022-10-13T05:47:40.734Z,99413.00
2022-10-13T05:49:12.143Z,99411.97
2022-10-13T05:50:43.515Z,99421.47
2022-10-13T05:52:14.947Z,99423.84
2022-10-13T05:53:51.029Z,99419.38
2022-10-13T05:55:24.422Z,99432.91
2022-10-13T05:57:00.468Z,99422.19
2022-10-13T05:58:36.738Z,99430.97
2022-10-13T06:00:08.644Z,99427.13
2022-10-13T06:01:46.060Z,99428.31
2022-10-13T06:03:18.226Z,99424.44
2022-10-13T06:04:50.686Z,99426.38
2022-10-13T06:06:22.667Z,99426.38
2022-10-13T06:07:54.069Z,99422.19
2022-10-13T06:09:25.915Z,99429.06
2022-10-13T06:10:57.319Z,99431.72
2022-10-13T06:12:28.739Z,99428.31
2022-10-13T06:14:00.133Z,99429.06
2022-10-13T06:15:31.555Z,99431.72
2022-10-13T06:17:03.416Z,99435.16
2022-10-13T06:18:34.799Z,99429.06
2022-10-13T06:20:06.689Z,99439.75
2022-10-13T06:21:38.085Z,99434.41
2022-10-13T06:23:09.601Z,99431.72
2022-10-13T06:24:41.007Z,99433.66
2022-10-13T06:26:13.263Z,99435.91
2022-10-13T06:27:44.650Z,99429.78
2022-10-13T06:29:16.058Z,99432.47
2022-10-13T06:30:47.812Z,99438.56
2022-10-13T06:32:19.580Z,99437.81
2022-10-13T06:33:51.101Z,99440.50
2022-10-13T06:35:22.806Z,99443.91
2022-10-13T06:36:54.213Z,99435.16
2022-10-13T06:38:25.625Z,99445.84
2022-10-13T06:39:57.014Z,99443.75
2022-10-13T06:41:28.413Z,99448.13
2022-10-13T06:42:59.823Z,99437.41
2022-10-13T06:44:31.667Z,99438.88
2022-10-13T06:46:06.126Z,99434.28
2022-10-13T06:47:37.551Z,99430.88
2022-10-13T06:49:08.982Z,99434.28
2022-10-13T06:50:42.923Z,99428.94
2022-10-13T06:52:14.473Z,99432.34
2022-10-13T06:53:45.928Z,99430.44
2022-10-13T06:55:17.323Z,99428.94
2022-10-13T06:56:48.746Z,99426.25
2022-10-13T06:58:20.148Z,99429.69
2022-10-13T06:59:51.548Z,99427.00
2022-10-13T07:01:22.988Z,99428.19
2022-10-13T07:02:54.376Z,99433.53
2022-10-13T07:04:25.775Z,99428.78
2022-10-13T07:06:02.038Z,99435.78
2022-10-13T07:07:33.480Z,99430.63
2022-10-13T07:09:05.286Z,99426.63
2022-10-13T07:10:39.641Z,99426.47
2022-10-13T07:12:11.053Z,99430.94
2022-10-13T07:13:46.137Z,99424.97
2022-10-13T07:15:19.813Z,99424.38
2022-10-13T07:16:54.079Z,99425.59
2022-10-13T07:18:25.459Z,99431.56
2022-10-13T07:19:57.959Z,99419.22
2022-10-13T07:21:29.758Z,99424.44
2022-10-13T07:23:01.298Z,99423.53
2022-10-13T07:24:32.731Z,99416.53
2022-10-13T07:26:07.884Z,99421.44
2022-10-13T07:27:39.314Z,99420.56
2022-10-13T07:29:10.721Z,99421.59
2022-10-13T07:30:42.125Z,99418.47
2022-10-13T07:32:13.554Z,99420.25
2022-10-13T07:33:46.024Z,99410.56
2022-10-13T07:35:17.532Z,99407.72
2022-10-13T07:36:48.922Z,99411.47
2022-10-13T07:38:20.352Z,99404.16
2022-10-13T07:39:52.835Z,99412.94
2022-10-13T07:41:24.320Z,99412.66
2022-10-13T07:43:00.182Z,99407.28
2022-10-13T07:44:31.587Z,99410.72
2022-10-13T07:46:03.118Z,99413.41
2022-10-13T07:47:34.555Z,99406.53
2022-10-13T07:49:05.949Z,99405.38
2022-10-13T07:50:37.368Z,99413.41
2022-10-13T07:52:08.778Z,99408.78
2022-10-13T07:53:40.965Z,99407.56
2022-10-13T07:55:12.360Z,99404.91
2022-10-13T07:56:43.814Z,99403.44
2022-10-13T07:58:15.185Z,99410.25
2022-10-13T07:59:46.596Z,99412.94
2022-10-13T08:01:18.145Z,99413.41
2022-10-13T08:02:50.012Z,99410.41
2022-10-13T08:04:21.417Z,99412.53
2022-10-13T08:05:52.842Z,99415.63
2022-10-13T08:07:24.245Z,99418.47
2022-10-13T08:08:55.718Z,99422.31
2022-10-13T08:10:27.452Z,99417.44
2022-10-13T08:12:00.924Z,99416.38
2022-10-13T08:13:33.276Z,99416.84
2022-10-13T08:15:12.494Z,99413.41
2022-10-13T08:16:43.915Z,99411.91
2022-10-13T08:18:16.829Z,99410.72
2022-10-13T08:19:48.224Z,99409.84
2022-10-13T08:23:14.452Z,99410.28
2022-10-13T08:24:53.385Z,99408.94
2022-10-13T08:26:27.780Z,99403.88
2022-10-13T08:28:00.608Z,99408.63
2022-10-13T08:29:32.168Z,99408.91
2022-10-13T08:31:03.794Z,99403.13
2022-10-13T08:32:35.303Z,99400.13
2022-10-13T08:34:06.813Z,99399.22
2022-10-13T08:35:38.245Z,99408.31
2022-10-13T08:37:13.413Z,99402.53
2022-10-13T08:38:44.997Z,99402.09
2022-10-13T08:40:17.007Z,99403.88
2022-10-13T08:41:48.424Z,99404.91
2022-10-13T08:43:20.617Z,99404.00
2022-10-13T08:45:28.368Z,99408.91
2022-10-13T08:47:04.677Z,99406.97
2022-10-13T08:48:36.714Z,99409.94
2022-10-13T08:50:11.850Z,99408.00
2022-10-13T08:51:46.904Z,99408.28
2022-10-13T08:53:27.932Z,99404.72
2022-10-13T08:54:59.343Z,99409.63
2022-10-13T08:56:31.945Z,99408.13
2022-10-13T08:58:06.192Z,99404.72
2022-10-13T08:59:37.603Z,99406.19
2022-10-13T09:01:08.978Z,99410.38
2022-10-13T09:02:41.493Z,99407.69
2022-10-13T09:04:39.428Z,99405.28
2022-10-13T09:06:10.851Z,99409.47
2022-10-13T09:07:42.279Z,99413.34
2022-10-13T09:09:14.185Z,99411.13
2022-10-13T09:10:49.947Z,99409.19
2022-10-13T09:12:27.358Z,99409.34
2022-10-13T09:13:59.324Z,99399.81
2022-10-13T09:15:30.731Z,99407.09
2022-10-13T09:17:20.976Z,99402.94
2022-10-13T09:18:52.404Z,99404.88
2022-10-13T09:20:24.668Z,99404.16
2022-10-13T09:21:56.818Z,99404.88
2022-10-13T09:23:28.229Z,99400.72
2022-10-13T09:25:10.049Z,99403.41
2022-10-13T09:26:41.722Z,99391.94
2022-10-13T09:28:15.902Z,99403.84
2022-10-13T09:29:47.344Z,99392.38
2022-10-13T09:31:21.623Z,99394.59
2022-10-13T09:33:05.526Z,99387.00
2022-10-13T09:34:36.933Z,99391.66
2022-10-13T09:36:11.044Z,99393.88
2022-10-13T09:37:42.474Z,99394.59
2022-10-13T09:39:14.657Z,99385.06
2022-10-13T09:41:03.915Z,99380.94
2022-10-13T09:42:37.046Z,99390.91
2022-10-13T09:44:19.606Z,99394.03
2022-10-13T09:45:51.062Z,99391.81
2022-10-13T09:47:22.814Z,99390.59
2022-10-13T09:48:55.683Z,99389.41
2022-10-13T09:50:27.648Z,99393.59
2022-10-13T09:52:00.428Z,99385.97
2022-10-13T09:53:37.984Z,99389.13
2022-10-13T09:55:31.325Z,99387.91
2022-10-13T09:57:04.298Z,99390.59
2022-10-13T09:58:37.031Z,99389.41
2022-10-13T10:00:13.687Z,99392.53
2022-10-13T10:01:45.712Z,99391.06
2022-10-13T10:03:22.047Z,99387.63
2022-10-13T10:04:53.500Z,99388.06
2022-10-13T10:06:27.697Z,99390.31
2022-10-13T10:08:02.719Z,99383.47
2022-10-13T10:09:39.434Z,99384.97
2022-10-13T10:11:17.946Z,99391.34
2022-10-13T10:12:49.361Z,99386.72
2022-10-13T10:14:24.590Z,99388.22
2022-10-13T10:16:01.642Z,99388.50
2022-10-13T10:18:02.262Z,99383.88
2022-10-13T10:19:42.727Z,99391.19
2022-10-13T10:21:22.380Z,99386.84
2022-10-13T10:22:59.145Z,99389.84
2022-10-13T10:24:50.847Z,99390.13
2022-10-13T10:26:25.005Z,99382.06
2022-10-13T10:28:06.818Z,99382.38
2022-10-13T10:29:41.237Z,99387.28
2022-10-13T10:31:24.630Z,99378.50
2022-10-13T10:32:58.832Z,99381.47
2022-10-13T10:34:32.654Z,99376.88
2022-10-13T10:36:06.889Z,99385.66
2022-10-13T10:37:41.355Z,99387.88
2022-10-13T10:39:17.243Z,99384.28
2022-10-13T10:40:49.978Z,99382.34
2022-10-13T10:42:27.155Z,99381.16
2022-10-13T10:44:21.976Z,99382.34
2022-10-13T10:45:54.026Z,99378.91
2022-10-13T10:47:39.709Z,99375.78
2022-10-13T10:49:12.853Z,99375.78
2022-10-13T10:50:44.331Z,99375.31
2022-10-13T10:52:18.303Z,99367.59
2022-10-13T10:54:16.110Z,99372.03
2022-10-13T10:55:55.121Z,99363.53
2022-10-13T10:57:38.325Z,99367.69
2022-10-13T10:59:12.811Z,99363.53
2022-10-13T11:00:47.709Z,99362.34
2022-10-13T11:02:27.197Z,99355.03
2022-10-13T11:04:04.028Z,99362.81
2022-10-13T11:05:53.881Z,99367.41
2022-10-13T11:07:25.325Z,99359.81
2022-10-13T11:08:56.701Z,99362.97
2022-10-13T11:10:28.251Z,99362.66
2022-10-13T11:11:59.882Z,99356.56
2022-10-13T11:13:31.275Z,99353.13
2022-10-13T11:15:32.102Z,99356.28
2022-10-13T11:17:06.718Z,99353.28
2022-10-13T11:18:56.720Z,99355.69
2022-10-13T11:20:35.090Z,99359.28
2022-10-13T11:22:06.460Z,99352.44
2022-10-13T11:23:45.147Z,99354.66
2022-10-13T11:25:35.192Z,99350.50
2022-10-13T11:27:16.249Z,99345.88
2022-10-13T11:28:47.963Z,99350.50
2022-10-13T11:30:38.383Z,99339.03
2022-10-13T11:32:25.106Z,99337.53
2022-10-13T11:33:57.551Z,99334.13
2022-10-13T11:35:28.954Z,99336.81
2022-10-13T11:37:01.081Z,99334.13
2022-10-13T11:38:34.100Z,99328.03
2022-10-13T11:40:08.174Z,99326.53
2022-10-13T11:41:58.191Z,99323.13
2022-10-13T11:43:32.354Z,99315.38
2022-10-13T11:45:07.066Z,99318.06
2022-10-13T11:46:46.866Z,99310.75
2022-10-13T11:48:36.785Z,99310.03
2022-10-13T11:50:27.069Z,99304.66
2022-10-13T11:52:06.748Z,99297.34
2022-10-13T11:53:55.551Z,99301.22
2022-10-13T11:55:53.092Z,99292.72
2022-10-13T11:57:25.284Z,99299.13
2022-10-13T11:58:56.713Z,99298.38
2022-10-13T12:00:28.120Z,99293.31
2022-10-13T12:02:00.315Z,99290.19
2022-10-13T12:03:32.786Z,99290.94
2022-10-13T12:05:04.264Z,99292.38
2022-10-13T12:06:38.329Z,99278.72
2022-10-13T12:08:09.738Z,99277.97
2022-10-13T12:09:49.199Z,99282.88
2022-10-13T12:11:47.054Z,99276.03
2022-10-13T12:13:19.831Z,99275.00
2022-10-13T12:14:52.447Z,99271.59
2022-10-13T12:16:25.292Z,99266.50
2022-10-13T12:17:56.689Z,99267.25
2022-10-13T12:19:29.301Z,99267.25
2022-10-13T12:21:02.028Z,99268.44
2022-10-13T12:22:36.817Z,99263.81
2022-10-13T12:24:12.330Z,99266.06
2022-10-13T12:25:43.707Z,99261.88
2022-10-13T12:27:20.352Z,99256.53
2022-10-13T12:28:52.013Z,99251.16
2022-10-13T12:30:24.713Z,99259.94
2022-10-13T12:31:56.194Z,99256.78
2022-10-13T12:33:29.132Z,99253.22
2022-10-13T12:35:10.699Z,99252.00
2022-10-13T12:36:42.115Z,99257.69
2022-10-13T12:38:17.338Z,99255.28
2022-10-13T12:39:48.868Z,99247.88
2022-10-13T12:41:25.271Z,99251.84
2022-10-13T12:42:56.688Z,99257.94
2022-10-13T12:44:28.582Z,99251.41
2022-10-13T12:46:00.012Z,99254.81
2022-10-13T12:47:46.253Z,99260.94
2022-10-13T12:49:17.729Z,99256.28
2022-10-13T12:50:49.239Z,99258.06
2022-10-13T12:52:23.193Z,99254.50
2022-10-13T12:53:54.959Z,99258.22
2022-10-13T12:55:28.175Z,99252.38
2022-10-13T12:57:04.334Z,99255.81
2022-10-13T12:58:35.748Z,99256.53
2022-10-13T13:00:19.250Z,99252.09
2022-10-13T13:01:57.927Z,99249.16
2022-10-13T13:03:32.909Z,99250.63
2022-10-13T13:05:24.261Z,99247.94
2022-10-13T13:06:56.424Z,99249.16
2022-10-13T13:08:28.448Z,99248.41
2022-10-13T13:10:09.015Z,99247.34
2022-10-13T13:11:40.816Z,99246.31
2022-10-13T13:13:15.921Z,99241.69
2022-10-13T13:14:47.940Z,99244.38
2022-10-13T13:16:22.105Z,99242.16
2022-10-13T13:17:58.408Z,99236.34
2022-10-13T13:19:31.260Z,99238.56
2022-10-13T13:21:04.613Z,99234.66
2022-10-13T13:24:21.876Z,99238.09
2022-10-13T13:26:03.847Z,99236.63
2022-10-13T13:27:38.988Z,99230.97
2022-10-13T13:29:10.413Z,99232.16
2022-10-13T13:30:41.973Z,99236.34
2022-10-13T13:32:13.813Z,99230.06
2022-10-13T13:33:45.647Z,99232.31
2022-10-13T13:35:17.129Z,99233.78
2022-10-13T13:36:48.946Z,99232.00
2022-10-13T13:38:20.360Z,99240.03
2022-10-13T13:39:52.123Z,99225.91
2022-10-13T13:41:23.573Z,99226.34
2022-10-13T13:42:54.982Z,99222.94
2022-10-13T13:44:29.877Z,99226.09
2022-10-13T13:46:01.335Z,99221.91
2022-10-13T13:47:32.745Z,99214.31
2022-10-13T13:49:04.126Z,99217.47
2022-10-13T13:50:35.851Z,99220.59
2022-10-13T13:52:07.231Z,99214.03
2022-10-13T13:53:38.664Z,99214.47
2022-10-13T13:55:10.072Z,99218.38
2022-10-13T13:56:41.463Z,99215.41
2022-10-13T13:58:12.866Z,99216.59
2022-10-13T13:59:44.255Z,99214.38
2022-10-13T14:01:15.901Z,99212.88
2022-10-13T14:02:47.451Z,99206.50
2022-10-13T14:04:18.848Z,99206.50
2022-10-13T14:05:50.262Z,99216.78
2022-10-13T14:07:23.671Z,99209.03
2022-10-13T14:08:55.774Z,99207.84
2022-10-13T14:10:27.191Z,99207.09
2022-10-13T14:11:58.598Z,99214.38
2022-10-13T14:13:30.005Z,99212.88
2022-10-13T14:15:01.391Z,99211.88
2022-10-13T14:16:32.791Z,99204.28
2022-10-13T14:18:07.958Z,99205.78
2022-10-13T14:19:39.340Z,99201.16
2022-10-13T14:21:10.761Z,99203.84
2022-10-13T14:22:42.180Z,99203.09
2022-10-13T14:24:13.574Z,99193.56
2022-10-13T14:25:44.964Z,99194.78
2022-10-13T14:27:16.399Z,99192.09
2022-10-13T14:28:47.941Z,99190.88
2022-10-13T14:30:19.508Z,99186.00
2022-10-13T14:31:50.914Z,99185.25
2022-10-13T14:33:22.305Z,99188.66
2022-10-13T14:34:53.706Z,99179.88
2022-10-13T14:36:25.261Z,99169.16
2022-10-13T14:37:56.667Z,99172.59
2022-10-13T14:39:28.363Z,99169.16
2022-10-13T14:41:03.296Z,99167.66
2022-10-13T14:42:34.689Z,99173.03
2022-10-13T14:44:12.498Z,99179.63
2022-10-13T14:45:44.442Z,99168.41
2022-10-13T14:47:15.847Z,99169.91
2022-10-13T14:48:47.240Z,99161.88
2022-10-13T14:50:18.645Z,99159.19
2022-10-13T14:51:51.851Z,99156.78
2022-10-13T14:53:23.364Z,99157.53
2022-10-13T14:54:54.773Z,99159.75
2022-10-13T14:56:26.737Z,99160.50
2022-10-13T14:57:58.720Z,99163.63
2022-10-13T14:59:30.214Z,99160.22
2022-10-13T15:01:01.628Z,99157.53
2022-10-13T15:02:33.043Z,99152.16
2022-10-13T15:04:04.429Z,99153.34
2022-10-13T15:05:36.717Z,99155.75
2022-10-13T15:07:08.126Z,99156.22
2022-10-13T15:08:40.492Z,99152.81
2022-10-13T15:10:11.887Z,99159.38
2022-10-13T15:11:43.359Z,99167.41
2022-10-13T15:13:14.763Z,99156.38
2022-10-13T15:14:47.778Z,99157.88
2022-10-13T15:16:22.779Z,99159.38
2022-10-13T15:17:54.242Z,99159.38
2022-10-13T15:19:25.944Z,99164.72
2022-10-13T15:20:57.502Z,99155.19
2022-10-13T15:22:28.917Z,99157.88
2022-10-13T15:24:00.320Z,99148.66
2022-10-13T15:25:31.706Z,99155.50
2022-10-13T15:27:03.131Z,99152.81
2022-10-13T15:28:38.474Z,99150.13
2022-10-13T15:30:10.150Z,99148.91
2022-10-13T15:31:41.556Z,99145.50
2022-10-13T15:33:12.957Z,99142.38
2022-10-13T15:34:44.545Z,99140.44
2022-10-13T15:36:15.930Z,99136.53
2022-10-13T15:37:47.384Z,99135.81
2022-10-13T15:39:18.786Z,99144.13
2022-10-13T15:40:50.182Z,99142.63
2022-10-13T15:42:21.928Z,99147.25
2022-10-13T15:43:53.577Z,99143.09
2022-10-13T15:45:25.002Z,99132.84
2022-10-13T15:47:07.499Z,99137.44
2022-10-13T15:48:39.754Z,99138.66
2022-10-13T15:50:11.159Z,99137.94
2022-10-13T15:51:42.556Z,99138.66
2022-10-13T15:53:13.973Z,99142.09
2022-10-13T15:54:45.359Z,99136.72
2022-10-13T15:56:16.754Z,99139.41
2022-10-13T15:57:48.208Z,99137.19
2022-10-13T15:59:19.604Z,99133.75
2022-10-13T16:00:51.057Z,99128.69
2022-10-13T16:02:24.023Z,99131.38
2022-10-13T16:03:55.500Z,99124.53
2022-10-13T16:05:26.954Z,99127.94
2022-10-13T16:06:58.361Z,99128.69
2022-10-13T16:08:29.755Z,99123.34
2022-10-13T16:10:01.363Z,99126.72
2022-10-13T16:11:32.745Z,99128.69
2022-10-13T16:13:04.158Z,99134.78
2022-10-13T16:14:35.568Z,99130.91
2022-10-13T16:16:07.083Z,99132.38
2022-10-13T16:17:38.551Z,99138.50
2022-10-13T16:19:09.961Z,99139.97
2022-10-13T16:20:41.376Z,99144.56
2022-10-13T16:22:12.774Z,99144.56
2022-10-13T16:23:44.407Z,99147.72
2022-10-13T16:25:15.804Z,99143.09
2022-10-13T16:26:47.202Z,99140.44
2022-10-13T16:28:18.637Z,99146.22
2022-10-13T16:29:50.057Z,99140.88
2022-10-13T16:31:21.439Z,99145.31
2022-10-13T16:32:52.850Z,99144.56
2022-10-13T16:34:24.237Z,99144.13
2022-10-13T16:36:02.091Z,99139.78
2022-10-13T16:37:33.505Z,99138.84
2022-10-13T16:39:04.937Z,99142.59
2022-10-13T16:40:37.317Z,99147.19
2022-10-13T16:42:08.775Z,99138.16
2022-10-13T16:43:40.281Z,99147.66
2022-10-13T16:45:11.680Z,99142.00
2022-10-13T16:46:43.311Z,99139.34
2022-10-13T16:48:14.786Z,99145.88
2022-10-13T16:49:46.357Z,99144.69
2022-10-13T16:51:20.179Z,99143.78
2022-10-13T16:52:51.616Z,99151.06
2022-10-13T16:54:23.027Z,99144.22
2022-10-13T16:55:54.613Z,99147.38
2022-10-13T16:57:26.141Z,99148.56
2022-10-13T16:58:58.312Z,99147.09
2022-10-13T17:00:29.732Z,99146.81
2022-10-13T17:02:01.351Z,99156.78
2022-10-13T17:03:32.801Z,99154.56
2022-10-13T17:05:04.370Z,99159.94
2022-10-13T17:06:35.789Z,99156.03
2022-10-13T17:08:07.332Z,99151.41
2022-10-13T17:09:38.854Z,99153.66
2022-10-13T17:11:10.511Z,99147.56
2022-10-13T17:12:42.409Z,99148.28
2022-10-13T17:14:13.866Z,99145.63
2022-10-13T17:15:49.261Z,99141.75
2022-10-13T17:17:21.337Z,99144.41
2022-10-13T17:18:55.946Z,99149.03
2022-10-13T17:20:37.849Z,99147.09
2022-10-13T17:22:09.361Z,99150.97
2022-10-13T17:23:45.900Z,99144.41
2022-10-13T17:25:20.443Z,99145.63
2022-10-13T17:26:55.179Z,99142.94
2022-10-13T17:28:26.712Z,99147.56
2022-10-13T17:29:58.470Z,99140.69
2022-10-13T17:31:30.038Z,99139.97
2022-10-13T17:33:04.391Z,99145.31
2022-10-13T17:34:36.555Z,99145.31
2022-10-13T17:36:10.147Z,99145.31
2022-10-13T17:37:41.680Z,99152.16
2022-10-13T17:39:17.144Z,99141.19
2022-10-13T17:40:50.304Z,99144.56
2022-10-13T17:42:22.509Z,99143.84
2022-10-13T17:43:54.451Z,99146.53
2022-10-13T17:45:26.614Z,99143.84
2022-10-13T17:46:58.427Z,99144.56
2022-10-13T17:48:30.608Z,99137.75
2022-10-13T17:50:05.679Z,99128.22
2022-10-13T17:51:37.942Z,99121.84
2022-10-13T17:53:10.126Z,99126.91
2022-10-13T17:54:45.307Z,99128.13
2022-10-13T17:56:18.212Z,99128.13
2022-10-13T17:57:50.085Z,99128.88
2022-10-13T17:59:23.194Z,99130.31
2022-10-13T18:01:12.302Z,99126.63
2022-10-13T18:02:45.245Z,99126.63
2022-10-13T18:04:18.638Z,99124.41
2022-10-13T18:05:53.060Z,99121.72
2022-10-13T18:07:24.733Z,99116.84
2022-10-13T18:08:57.063Z,99120.69
2022-10-13T18:10:37.019Z,99117.75
2022-10-13T18:12:21.981Z,99118.94
2022-10-13T18:13:53.965Z,99116.00
2022-10-13T18:15:26.901Z,99111.81
2022-10-13T18:16:58.812Z,99110.34
2022-10-13T18:18:30.821Z,99113.00
2022-10-13T18:20:03.729Z,99115.41
2022-10-13T18:21:36.455Z,99118.09
2022-10-13T18:23:08.607Z,99113.94